createdAt,value
2019-06-10T00:00:18.246Z,3.30
2019-06-10T00:02:48.154Z,2.83
2019-06-10T00:05:17.952Z,3.50
2019-06-10T00:07:47.737Z,2.70
2019-06-10T00:10:18.407Z,3.00
2019-06-10T00:12:51.738Z,3.20
2019-06-10T00:15:21.507Z,3.03
2019-06-10T00:18:07.028Z,2.40
2019-06-10T00:20:22.949Z,2.47
2019-06-10T00:22:53.910Z,2.80
2019-06-10T00:25:23.669Z,2.50
2019-06-10T00:27:53.446Z,2.60
2019-06-10T00:30:23.222Z,2.33
2019-06-10T00:32:52.982Z,2.70
2019-06-10T00:35:23.848Z,2.87
2019-06-10T00:37:53.626Z,2.93
2019-06-10T00:40:23.302Z,2.23
2019-06-10T00:42:53.037Z,2.87
2019-06-10T00:45:22.864Z,3.00
2019-06-10T00:48:07.650Z,2.37
2019-06-10T00:50:23.941Z,2.63
2019-06-10T00:52:53.682Z,2.37
2019-06-10T00:55:23.379Z,2.60
2019-06-10T00:57:53.073Z,2.20
2019-06-10T01:00:25.468Z,2.77
2019-06-10T01:02:54.310Z,2.80
2019-06-10T01:05:24.011Z,2.90
2019-06-10T01:07:53.713Z,2.57
2019-06-10T01:10:23.610Z,2.57
2019-06-10T01:12:53.330Z,2.33
2019-06-10T01:15:23.012Z,2.50
2019-06-10T01:17:52.721Z,2.70
2019-06-10T01:20:22.529Z,2.63
2019-06-10T01:22:52.325Z,2.80
2019-06-10T01:25:22.011Z,2.40
2019-06-10T01:27:51.725Z,3.07
2019-06-10T01:30:26.476Z,2.70
2019-06-10T01:32:52.953Z,2.67
2019-06-10T01:35:22.642Z,2.70
2019-06-10T01:37:52.405Z,2.70
2019-06-10T01:40:22.194Z,2.73
2019-06-10T01:42:52.042Z,2.77
2019-06-10T01:45:21.750Z,2.83
2019-06-10T01:47:51.539Z,2.90
2019-06-10T01:50:21.856Z,3.10
2019-06-10T01:52:52.953Z,2.53
2019-06-10T01:55:22.798Z,2.50
2019-06-10T01:57:54.617Z,2.60
2019-06-10T02:00:31.170Z,2.40
2019-06-10T02:03:03.346Z,2.43
2019-06-10T02:05:32.475Z,3.23
2019-06-10T02:08:02.184Z,2.77
2019-06-10T02:10:31.943Z,2.70
2019-06-10T02:13:01.639Z,2.80
2019-06-10T02:15:31.550Z,2.77
2019-06-10T02:18:01.414Z,3.23
2019-06-10T02:20:31.753Z,3.03
2019-06-10T02:23:01.999Z,2.67
2019-06-10T02:25:31.867Z,3.13
2019-06-10T02:28:01.561Z,2.60
2019-06-10T02:30:41.701Z,2.70
2019-06-10T02:33:02.758Z,2.70
2019-06-10T02:35:43.251Z,3.20
2019-06-10T02:38:04.053Z,2.70
2019-06-10T02:40:36.536Z,2.83
2019-06-10T02:43:05.975Z,2.73
2019-06-10T02:45:37.467Z,3.20
2019-06-10T02:48:07.263Z,3.50
2019-06-10T02:51:04.065Z,2.77
2019-06-10T02:53:36.422Z,3.10
2019-06-10T02:56:07.246Z,3.23
2019-06-10T02:58:39.394Z,3.33
2019-06-10T03:01:09.022Z,2.90
2019-06-10T03:03:44.210Z,3.20
2019-06-10T03:06:13.822Z,2.93
2019-06-10T03:08:43.609Z,2.93
2019-06-10T03:11:14.058Z,3.10
2019-06-10T03:13:44.158Z,2.80
2019-06-10T03:16:38.971Z,3.10
2019-06-10T03:19:08.757Z,3.40
2019-06-10T03:21:38.536Z,3.17
2019-06-10T03:24:08.252Z,3.37
2019-06-10T03:26:38.015Z,3.30
2019-06-10T03:29:07.798Z,3.20
2019-06-10T03:31:43.202Z,2.83
2019-06-10T03:34:08.931Z,3.43
2019-06-10T03:36:39.775Z,3.50
2019-06-10T03:39:09.713Z,3.17
2019-06-10T03:41:39.514Z,3.10
2019-06-10T03:44:09.285Z,3.43
2019-06-10T03:46:38.981Z,2.80
2019-06-10T03:49:08.752Z,2.77
2019-06-10T03:51:38.634Z,3.10
2019-06-10T03:54:08.485Z,3.93
2019-06-10T03:56:38.262Z,2.90
2019-06-10T03:59:07.975Z,2.60
2019-06-10T04:01:37.771Z,3.30
2019-06-10T04:04:07.522Z,3.37
2019-06-10T04:06:37.226Z,3.93
2019-06-10T04:09:07.285Z,3.17
2019-06-10T04:11:36.969Z,3.70
2019-06-10T04:14:06.665Z,3.57
2019-06-10T04:16:37.413Z,3.67
2019-06-10T04:19:08.189Z,3.10
2019-06-10T04:21:37.871Z,3.60
2019-06-10T04:24:07.649Z,4.00
2019-06-10T04:26:37.413Z,3.63
2019-06-10T04:29:07.181Z,3.80
2019-06-10T04:31:36.865Z,4.20
2019-06-10T04:34:06.565Z,3.87
2019-06-10T04:36:36.312Z,3.10
2019-06-10T04:39:06.937Z,3.80
2019-06-10T04:41:36.698Z,4.33
2019-06-10T04:44:06.397Z,2.90
2019-06-10T04:46:36.228Z,3.20
2019-06-10T04:49:05.929Z,3.40
2019-06-10T04:51:35.668Z,3.47
2019-06-10T04:54:05.597Z,3.90
2019-06-10T04:56:35.382Z,3.37
2019-06-10T04:59:05.145Z,3.13
2019-06-10T05:01:34.989Z,3.37
2019-06-10T05:04:04.906Z,3.00
2019-06-10T05:06:34.593Z,3.40
2019-06-10T05:09:05.649Z,3.20
2019-06-10T05:11:35.335Z,3.63
2019-06-10T05:14:06.118Z,3.60
2019-06-10T05:16:36.171Z,3.13
2019-06-10T05:19:05.986Z,3.40
2019-06-10T05:21:35.751Z,2.80
2019-06-10T05:24:05.582Z,3.20
2019-06-10T05:26:35.301Z,3.30
2019-06-10T05:29:05.125Z,3.50
2019-06-10T05:31:35.351Z,3.30
2019-06-10T05:34:05.353Z,3.10
2019-06-10T05:36:35.123Z,3.00
2019-06-10T05:39:06.949Z,2.80
2019-06-10T05:41:36.660Z,3.50
2019-06-10T05:44:06.413Z,3.10
2019-06-10T05:46:36.161Z,3.37
2019-06-10T05:49:05.910Z,3.30
2019-06-10T05:51:35.614Z,3.50
2019-06-10T05:54:05.373Z,3.37
2019-06-10T05:56:35.683Z,3.23
2019-06-10T05:59:05.654Z,3.40
2019-06-10T06:01:38.271Z,3.60
2019-06-10T06:04:06.818Z,3.47
2019-06-10T06:06:37.510Z,3.57
2019-06-10T06:09:08.601Z,3.50
2019-06-10T06:11:38.430Z,3.53
2019-06-10T06:14:08.309Z,4.20
2019-06-10T06:16:38.326Z,3.80
2019-06-10T06:19:09.444Z,4.43
2019-06-10T06:21:44.730Z,4.57
2019-06-10T06:24:12.860Z,4.50
2019-06-10T06:26:43.225Z,3.53
2019-06-10T06:29:13.313Z,4.20
2019-06-10T06:31:43.247Z,4.30
2019-06-10T06:34:14.059Z,4.20
2019-06-10T06:36:44.026Z,4.20
2019-06-10T06:39:13.713Z,4.10
2019-06-10T06:41:43.437Z,4.93
2019-06-10T06:44:19.256Z,4.27
2019-06-10T06:46:48.971Z,4.67
2019-06-10T06:49:18.725Z,3.97
2019-06-10T06:51:55.169Z,3.90
2019-06-10T06:54:19.830Z,4.23
2019-06-10T06:56:49.593Z,4.50
2019-06-10T06:59:22.274Z,4.30
2019-06-10T07:01:52.468Z,5.00
2019-06-10T07:04:23.530Z,5.30
2019-06-10T07:06:55.667Z,5.03
2019-06-10T07:09:26.098Z,4.37
2019-06-10T07:11:58.689Z,4.90
2019-06-10T07:14:31.950Z,4.60
2019-06-10T07:17:03.962Z,4.97
2019-06-10T07:19:36.306Z,4.57
2019-06-10T07:22:11.692Z,4.80
2019-06-10T07:24:38.759Z,4.57
2019-06-10T07:27:06.861Z,4.37
2019-06-10T07:29:38.569Z,4.50
2019-06-10T07:32:08.004Z,5.20
2019-06-10T07:34:38.817Z,4.67
2019-06-10T07:37:09.158Z,4.80
2019-06-10T07:39:39.568Z,4.50
2019-06-10T07:42:10.385Z,4.57
2019-06-10T07:44:43.153Z,4.50
2019-06-10T07:47:12.838Z,4.67
2019-06-10T07:49:45.231Z,4.33
2019-06-10T07:52:19.725Z,4.73
2019-06-10T07:54:49.844Z,4.63
2019-06-10T07:57:19.535Z,5.00
2019-06-10T07:59:49.274Z,4.83
2019-06-10T08:02:20.054Z,4.60
2019-06-10T08:04:49.847Z,4.87
2019-06-10T08:07:25.420Z,5.20
2019-06-10T08:09:55.126Z,4.60
2019-06-10T08:12:25.926Z,4.80
2019-06-10T08:14:55.880Z,5.00
2019-06-10T08:17:27.707Z,5.10
2019-06-10T08:20:18.689Z,5.53
2019-06-10T08:22:54.004Z,5.07
2019-06-10T08:25:20.036Z,4.43
2019-06-10T08:28:13.379Z,4.93
2019-06-10T08:30:48.580Z,4.70
2019-06-10T08:33:42.562Z,4.43
2019-06-10T08:36:17.778Z,3.83
2019-06-10T08:38:52.715Z,4.80
2019-06-10T08:41:23.131Z,4.37
2019-06-10T08:43:55.266Z,4.03
2019-06-10T08:46:26.161Z,4.40
2019-06-10T08:48:55.952Z,3.57
2019-06-10T08:51:37.804Z,4.07
2019-06-10T08:54:07.719Z,3.90
2019-06-10T08:56:54.094Z,3.87
2019-06-10T08:59:23.547Z,4.00
2019-06-10T09:01:56.927Z,4.20
2019-06-10T09:04:29.440Z,4.07
2019-06-10T09:07:04.309Z,3.80
2019-06-10T09:09:40.435Z,3.73
2019-06-10T09:12:28.357Z,3.80
2019-06-10T09:14:43.979Z,3.60
2019-06-10T09:17:13.327Z,3.97
2019-06-10T09:19:46.437Z,4.63
2019-06-10T09:22:16.773Z,3.70
2019-06-10T09:24:50.449Z,4.10
2019-06-10T09:27:17.932Z,3.60
2019-06-10T09:29:50.673Z,3.40
2019-06-10T09:32:19.174Z,3.70
2019-06-10T09:34:52.753Z,3.17
2019-06-10T09:37:20.247Z,3.50
2019-06-10T09:39:58.027Z,3.47
2019-06-10T09:42:23.860Z,3.60
2019-06-10T09:44:55.589Z,3.70
2019-06-10T09:47:24.472Z,3.93
2019-06-10T09:49:55.611Z,3.70
2019-06-10T09:52:25.621Z,3.77
2019-06-10T09:54:56.889Z,4.10
2019-06-10T09:57:26.872Z,3.73
2019-06-10T09:59:56.863Z,3.63
2019-06-10T10:02:27.702Z,3.60
2019-06-10T10:04:58.599Z,3.67
2019-06-10T10:07:32.310Z,4.37
2019-06-10T10:10:04.182Z,3.50
2019-06-10T10:12:34.418Z,3.80
2019-06-10T10:15:22.533Z,3.60
2019-06-10T10:17:36.233Z,2.97
2019-06-10T10:20:06.665Z,3.67
2019-06-10T10:22:36.370Z,3.77
2019-06-10T10:25:06.347Z,3.47
2019-06-10T10:27:37.139Z,3.57
2019-06-10T10:30:09.778Z,3.37
2019-06-10T10:32:39.484Z,3.47
2019-06-10T10:35:09.432Z,3.53
2019-06-10T10:37:39.147Z,2.90
2019-06-10T10:40:08.977Z,3.70
2019-06-10T10:42:44.802Z,3.70
2019-06-10T10:45:10.246Z,3.37
2019-06-10T10:47:39.966Z,3.30
2019-06-10T10:50:13.922Z,3.23
2019-06-10T10:52:44.240Z,3.30
2019-06-10T10:55:16.670Z,3.30
2019-06-10T10:57:49.372Z,3.23
2019-06-10T11:00:22.628Z,2.90
2019-06-10T11:02:53.063Z,3.33
2019-06-10T11:05:36.130Z,3.00
2019-06-10T11:08:06.737Z,3.00
2019-06-10T11:10:36.705Z,2.67
2019-06-10T11:13:08.486Z,2.90
2019-06-10T11:15:38.375Z,3.10
2019-06-10T11:18:08.759Z,3.03
2019-06-10T11:20:39.706Z,3.00
2019-06-10T11:23:09.493Z,3.13
2019-06-10T11:25:39.344Z,3.43
2019-06-10T11:28:09.194Z,3.37
2019-06-10T11:30:38.994Z,4.00
2019-06-10T11:33:08.819Z,2.97
2019-06-10T11:35:39.772Z,3.00
2019-06-10T11:38:09.550Z,3.47
2019-06-10T11:40:39.407Z,3.40
2019-06-10T11:43:09.318Z,3.27
2019-06-10T11:45:47.401Z,3.20
2019-06-10T11:48:12.815Z,3.20
2019-06-10T11:50:42.835Z,3.53
2019-06-10T11:53:13.786Z,3.23
2019-06-10T11:55:45.006Z,3.27
2019-06-10T11:58:15.061Z,3.07
2019-06-10T12:00:44.821Z,2.60
2019-06-10T12:03:16.290Z,2.60
2019-06-10T12:05:46.069Z,2.93
2019-06-10T12:08:18.251Z,3.10
2019-06-10T12:10:49.024Z,2.77
2019-06-10T12:13:18.969Z,3.20
2019-06-10T12:16:20.653Z,2.57
2019-06-10T12:18:22.711Z,3.43
2019-06-10T12:20:59.669Z,2.83
2019-06-10T12:23:33.570Z,3.27
2019-06-10T12:26:04.842Z,2.50
2019-06-10T12:28:36.149Z,2.50
2019-06-10T12:31:07.422Z,2.73
2019-06-10T12:33:38.532Z,2.77
2019-06-10T12:36:08.426Z,2.87
2019-06-10T12:38:38.187Z,2.40
2019-06-10T12:41:10.299Z,3.20
2019-06-10T12:43:39.626Z,3.13
2019-06-10T12:46:09.481Z,2.73
2019-06-10T12:48:49.830Z,2.70
2019-06-10T12:57:06.973Z,2.80
2019-06-10T12:59:43.023Z,2.77
2019-06-10T13:02:22.708Z,3.00
2019-06-10T13:04:44.756Z,2.10
2019-06-10T13:07:16.991Z,2.80
2019-06-10T13:09:47.013Z,2.37
2019-06-10T13:12:16.734Z,2.63
2019-06-10T13:14:48.492Z,2.70
2019-06-10T13:17:18.050Z,2.37
2019-06-10T13:19:47.793Z,2.97
2019-06-10T13:22:17.641Z,3.00
2019-06-10T13:24:47.389Z,2.63
2019-06-10T13:27:17.094Z,2.50
2019-06-10T13:29:46.827Z,3.20
2019-06-10T13:32:16.589Z,2.67
2019-06-10T13:34:46.293Z,3.00
2019-06-10T13:37:16.377Z,2.77
2019-06-10T13:39:46.282Z,3.27
2019-06-10T13:42:16.010Z,2.57
2019-06-10T13:44:45.734Z,3.10
2019-06-10T13:47:17.153Z,3.10
2019-06-10T13:49:46.934Z,2.40
2019-06-10T13:52:17.527Z,2.63
2019-06-10T13:54:47.308Z,2.70
2019-06-10T13:57:17.034Z,2.80
2019-06-10T13:59:46.894Z,2.50
2019-06-10T14:02:16.712Z,2.30
2019-06-10T14:04:46.489Z,2.50
2019-06-10T14:07:17.399Z,2.80
2019-06-10T14:09:48.817Z,3.20
2019-06-10T14:12:18.624Z,3.07
2019-06-10T14:14:48.339Z,2.80
2019-06-10T14:17:19.512Z,2.77
2019-06-10T14:19:49.608Z,2.93
2019-06-10T14:22:19.389Z,2.70
2019-06-10T14:24:49.143Z,2.60
2019-06-10T14:27:21.499Z,2.60
2019-06-10T14:29:52.746Z,2.33
2019-06-10T14:32:22.355Z,2.10
2019-06-10T14:34:52.769Z,2.80
2019-06-10T14:37:35.086Z,2.43
2019-06-10T14:39:54.193Z,2.67
2019-06-10T14:42:24.616Z,2.70
2019-06-10T14:44:54.564Z,2.90
2019-06-10T14:47:24.497Z,2.70
2019-06-10T14:49:54.428Z,2.60
2019-06-10T14:52:26.586Z,2.60
2019-06-10T14:54:57.662Z,2.73
2019-06-10T14:57:29.754Z,2.37
2019-06-10T14:59:59.467Z,3.07
2019-06-10T15:02:29.354Z,2.87
2019-06-10T15:04:59.053Z,3.00
2019-06-10T15:07:28.766Z,3.00
2019-06-10T15:09:58.614Z,2.77
2019-06-10T15:12:28.479Z,2.90
2019-06-10T15:14:58.262Z,2.57
2019-06-10T15:17:27.985Z,2.87
2019-06-10T15:19:57.877Z,2.90
2019-06-10T15:22:27.698Z,2.70
2019-06-10T15:24:57.478Z,3.37
2019-06-10T15:27:30.613Z,2.50
2019-06-10T15:29:58.649Z,3.33
2019-06-10T15:32:34.585Z,2.93
2019-06-10T15:34:59.766Z,3.50
2019-06-10T15:37:29.543Z,2.80
2019-06-10T15:39:59.319Z,3.20
2019-06-10T15:42:29.162Z,3.00
2019-06-10T15:44:59.061Z,3.47
2019-06-10T15:47:28.932Z,2.87
2019-06-10T15:49:58.773Z,3.27
2019-06-10T15:52:28.546Z,2.87
2019-06-10T15:54:58.331Z,2.70
2019-06-10T15:57:39.339Z,2.60
2019-06-10T15:59:59.523Z,2.57
2019-06-10T16:02:29.211Z,2.83
2019-06-10T16:04:58.969Z,2.70
2019-06-10T16:07:28.658Z,3.00
2019-06-10T16:09:58.357Z,3.00
2019-06-10T16:12:28.127Z,2.83
2019-06-10T16:14:57.873Z,2.77
2019-06-10T16:17:30.069Z,2.67
2019-06-10T16:19:59.034Z,2.70
2019-06-10T16:22:28.837Z,2.37
2019-06-10T16:24:58.549Z,2.70
2019-06-10T16:27:43.476Z,2.30
2019-06-10T16:29:59.643Z,2.90
2019-06-10T16:32:32.890Z,2.53
2019-06-10T16:35:03.978Z,2.37
2019-06-10T16:37:33.409Z,2.20
2019-06-10T16:40:03.436Z,2.80
2019-06-10T16:42:33.260Z,2.50
2019-06-10T16:45:03.165Z,2.23
2019-06-10T16:47:32.952Z,2.13
2019-06-10T16:50:03.348Z,2.60
2019-06-10T16:52:34.322Z,2.10
2019-06-10T16:55:05.581Z,2.83
2019-06-10T16:57:35.426Z,2.40
2019-06-10T17:00:11.331Z,2.70
2019-06-10T17:02:37.310Z,2.40
2019-06-10T17:05:08.611Z,2.60
2019-06-10T17:07:38.502Z,2.40
2019-06-10T17:10:09.739Z,2.57
2019-06-10T17:12:39.518Z,2.50
2019-06-10T17:15:09.986Z,2.60
2019-06-10T17:17:39.833Z,2.60
2019-06-10T17:20:13.038Z,5.40
2019-06-10T17:22:43.483Z,5.50
2019-06-10T17:25:13.619Z,6.43
2019-06-10T17:27:43.443Z,7.60
2019-06-10T17:30:13.390Z,4.80
2019-06-10T17:32:43.110Z,5.03
2019-06-10T17:35:12.950Z,4.63
2019-06-10T17:37:43.245Z,4.27
2019-06-10T17:40:14.225Z,3.50
2019-06-10T17:42:43.949Z,3.30
2019-06-10T17:45:14.357Z,3.20
2019-06-10T17:47:44.516Z,3.03
2019-06-10T17:50:14.498Z,3.13
2019-06-10T17:52:53.241Z,4.00
2019-06-10T17:55:24.884Z,3.80
2019-06-10T17:57:53.424Z,3.70
2019-06-10T18:00:25.932Z,2.83
2019-06-10T18:02:54.814Z,2.47
2019-06-10T18:05:25.298Z,2.67
2019-06-10T18:07:55.310Z,2.90
2019-06-10T18:10:25.593Z,2.73
2019-06-10T18:12:56.378Z,2.93
2019-06-10T18:15:26.156Z,2.67
2019-06-10T18:17:56.032Z,3.00
2019-06-10T18:20:26.466Z,2.77
2019-06-10T18:22:56.219Z,2.67
2019-06-10T18:25:26.620Z,2.90
2019-06-10T18:27:58.467Z,3.23
2019-06-10T18:30:29.488Z,3.10
2019-06-10T18:32:59.470Z,3.40
2019-06-10T18:35:37.509Z,2.67
2019-06-10T18:38:06.574Z,3.20
2019-06-10T18:40:36.318Z,3.47
2019-06-10T18:43:06.323Z,2.40
2019-06-10T18:45:38.624Z,3.20
2019-06-10T18:48:08.633Z,2.90
2019-06-10T18:50:43.215Z,2.93
2019-06-10T18:53:13.133Z,3.10
2019-06-10T18:55:43.635Z,2.80
2019-06-10T18:58:13.486Z,3.20
2019-06-10T19:00:57.019Z,3.10
2019-06-10T19:03:16.740Z,3.30
2019-06-10T19:05:46.738Z,2.83
2019-06-10T19:08:16.508Z,3.20
2019-06-10T19:10:46.277Z,3.43
2019-06-10T19:13:15.965Z,3.07
2019-06-10T19:15:45.682Z,3.60
2019-06-10T19:18:15.620Z,4.03
2019-06-10T19:20:45.414Z,3.30
2019-06-10T19:23:16.578Z,3.50
2019-06-10T19:25:47.526Z,3.60
2019-06-10T19:28:17.218Z,3.63
2019-06-10T19:30:47.028Z,4.00
2019-06-10T19:33:16.798Z,3.20
2019-06-10T19:35:46.641Z,3.67
2019-06-10T19:38:16.411Z,3.67
2019-06-10T19:40:46.185Z,3.77
2019-06-10T19:43:16.950Z,3.90
2019-06-10T19:45:46.944Z,3.57
2019-06-10T19:48:16.734Z,3.83
2019-06-10T19:50:50.200Z,3.93
2019-06-10T19:53:17.870Z,4.00
2019-06-10T19:55:47.643Z,4.27
2019-06-10T19:58:17.531Z,4.20
2019-06-10T20:00:51.084Z,4.40
2019-06-10T20:03:22.193Z,4.00
2019-06-10T20:05:52.878Z,4.50
2019-06-10T20:08:34.611Z,4.13
2019-06-10T20:11:04.992Z,3.87
2019-06-10T20:13:38.545Z,4.40
2019-06-10T20:16:12.077Z,4.13
2019-06-10T20:18:47.592Z,4.00
2019-06-10T20:21:18.515Z,4.07
2019-06-10T20:23:49.326Z,3.70
2019-06-10T20:26:22.419Z,3.97
2019-06-10T20:28:54.899Z,3.70
2019-06-10T20:31:23.229Z,4.00
2019-06-10T20:33:52.929Z,3.77
2019-06-10T20:36:26.900Z,3.80
2019-06-10T20:38:54.146Z,3.63
2019-06-10T20:41:23.904Z,4.20
2019-06-10T20:43:55.574Z,3.70
2019-06-10T20:46:25.157Z,3.60
2019-06-10T20:48:54.943Z,4.30
2019-06-10T20:51:27.015Z,3.50
2019-06-10T20:53:56.033Z,3.93
2019-06-10T20:56:25.850Z,3.67
2019-06-10T20:58:55.649Z,4.30
2019-06-10T21:01:25.735Z,3.70
2019-06-10T21:03:55.562Z,4.43
2019-06-10T21:06:26.935Z,4.27
2019-06-10T21:08:56.766Z,4.50
2019-06-10T21:11:26.468Z,4.67
2019-06-10T21:13:56.191Z,4.70
2019-06-10T21:16:25.959Z,4.80
2019-06-10T21:18:55.929Z,4.97
2019-06-10T21:21:32.637Z,5.00
2019-06-10T21:24:02.535Z,4.63
2019-06-10T21:26:32.627Z,4.43
2019-06-10T21:29:03.832Z,5.10
2019-06-10T21:31:36.769Z,4.43
2019-06-10T21:34:06.621Z,4.83
2019-06-10T21:36:37.345Z,4.27
2019-06-10T21:39:08.212Z,4.90
2019-06-10T21:41:37.938Z,4.43
2019-06-10T21:44:07.722Z,4.73
2019-06-10T21:46:37.439Z,4.50
2019-06-10T21:49:07.146Z,5.07
2019-06-10T21:51:39.942Z,4.93
2019-06-10T21:54:11.945Z,5.13
2019-06-10T21:56:43.125Z,5.40
2019-06-10T21:59:12.709Z,5.27
2019-06-10T22:01:44.260Z,4.90
2019-06-10T22:04:13.838Z,5.10
2019-06-10T22:06:43.876Z,5.30
2019-06-10T22:09:13.739Z,4.70
2019-06-10T22:11:43.902Z,4.70
2019-06-10T22:14:13.677Z,4.43
2019-06-10T22:16:44.203Z,4.60
2019-06-10T22:19:13.978Z,4.90
2019-06-10T22:21:44.608Z,5.33
2019-06-10T22:24:14.407Z,4.60
2019-06-10T22:26:44.739Z,5.80
2019-06-10T22:29:14.613Z,5.40
2019-06-10T22:31:45.209Z,5.67
2019-06-10T22:34:15.221Z,5.30
2019-06-10T22:36:45.501Z,4.73
2019-06-10T22:39:15.289Z,4.50
2019-06-10T22:41:45.041Z,5.20
2019-06-10T22:44:15.818Z,4.77
2019-06-10T22:46:45.506Z,5.60
2019-06-10T22:49:23.503Z,5.00
2019-06-10T22:51:54.522Z,4.93
2019-06-10T22:54:24.131Z,4.77
2019-06-10T22:56:54.831Z,5.10
2019-06-10T22:59:25.318Z,4.43
2019-06-10T23:01:56.580Z,4.73
2019-06-10T23:04:26.489Z,5.47
2019-06-10T23:06:57.684Z,4.97
2019-06-10T23:09:27.606Z,5.37
2019-06-10T23:11:57.764Z,4.40
2019-06-10T23:14:28.677Z,4.93
2019-06-10T23:16:59.934Z,5.17
2019-06-10T23:19:29.799Z,4.87
2019-06-10T23:22:00.127Z,5.20
2019-06-10T23:24:32.179Z,4.90
2019-06-10T23:27:03.208Z,5.20
2019-06-10T23:29:34.550Z,4.93
2019-06-10T23:32:07.167Z,4.40
2019-06-10T23:34:36.911Z,4.50
2019-06-10T23:37:06.590Z,4.90
2019-06-10T23:39:36.348Z,4.70
2019-06-10T23:42:06.217Z,4.90
2019-06-10T23:44:35.906Z,4.70
2019-06-10T23:47:05.698Z,4.63
2019-06-10T23:49:35.403Z,5.07
2019-06-10T23:52:05.691Z,4.57
2019-06-10T23:54:36.556Z,4.83
2019-06-10T23:57:06.542Z,5.67
2019-06-10T23:59:36.466Z,5.00
